createdAt,value
2023-02-15T00:01:35.744Z,35.50
2023-02-15T00:04:02.251Z,35.08
2023-02-15T00:06:29.066Z,33.10
2023-02-15T00:08:55.935Z,36.45
2023-02-15T00:11:40.845Z,36.15
2023-02-15T00:14:10.071Z,34.78
2023-02-15T00:16:37.232Z,36.58
2023-02-15T00:19:03.731Z,36.17
2023-02-15T00:21:31.739Z,34.70
2023-02-15T00:23:59.592Z,33.17
2023-02-15T00:26:26.275Z,34.20
2023-02-15T00:28:53.021Z,36.30
2023-02-15T00:31:19.772Z,33.75
2023-02-15T00:33:46.204Z,35.17
2023-02-15T00:36:13.187Z,35.20
2023-02-15T00:38:39.790Z,33.50
2023-02-15T00:41:07.660Z,35.83
2023-02-15T00:43:35.301Z,34.45
2023-02-15T00:46:03.129Z,33.58
2023-02-15T00:48:29.752Z,34.90
2023-02-15T00:50:57.951Z,35.85
2023-02-15T00:53:25.611Z,34.03
2023-02-15T00:55:52.027Z,34.85
2023-02-15T00:58:18.344Z,35.60
2023-02-15T01:00:46.673Z,34.20
2023-02-15T01:03:14.260Z,36.97
2023-02-15T01:05:40.693Z,34.88
2023-02-15T01:08:07.244Z,31.55
2023-02-15T01:10:35.660Z,34.45
2023-02-15T01:13:02.181Z,31.20
2023-02-15T01:15:28.653Z,30.50
2023-02-15T01:17:55.193Z,32.53
2023-02-15T01:20:24.502Z,32.20
2023-02-15T01:22:51.742Z,32.53
2023-02-15T01:25:18.969Z,33.38
2023-02-15T01:27:45.844Z,31.58
2023-02-15T01:30:12.776Z,33.85
2023-02-15T01:32:39.159Z,31.98
2023-02-15T01:35:05.972Z,32.20
2023-02-15T01:37:32.785Z,35.20
2023-02-15T01:40:01.053Z,34.50
2023-02-15T01:42:29.226Z,33.85
2023-02-15T01:44:58.619Z,34.78
2023-02-15T01:47:36.889Z,34.42
2023-02-15T01:50:39.324Z,32.75
2023-02-15T01:53:24.413Z,33.40
2023-02-15T01:55:59.668Z,35.20
2023-02-15T01:58:29.982Z,35.03
2023-02-15T02:00:59.677Z,33.13
2023-02-15T02:03:44.322Z,32.45
2023-02-15T02:06:11.091Z,32.00
2023-02-15T02:08:38.006Z,32.30
2023-02-15T02:11:11.182Z,31.58
2023-02-15T02:13:37.573Z,33.78
2023-02-15T02:16:14.581Z,32.10
2023-02-15T02:18:58.261Z,34.05
2023-02-15T02:21:24.716Z,34.70
2023-02-15T02:24:12.665Z,33.70
2023-02-15T02:27:03.212Z,33.90
2023-02-15T02:29:43.000Z,34.22
2023-02-15T02:32:25.225Z,33.83
2023-02-15T02:35:02.491Z,33.65
2023-02-15T02:37:38.487Z,31.58
2023-02-15T02:40:27.037Z,32.28
2023-02-15T02:43:02.956Z,32.85
2023-02-15T02:45:37.360Z,33.67
2023-02-15T02:48:10.324Z,35.33
2023-02-15T02:50:40.125Z,32.45
2023-02-15T02:53:06.835Z,34.47
2023-02-15T02:55:37.173Z,34.30
2023-02-15T02:58:14.336Z,33.08
2023-02-15T03:01:19.443Z,35.05
2023-02-15T03:03:50.038Z,34.35
2023-02-15T03:06:20.207Z,33.45
2023-02-15T03:08:51.961Z,32.45
2023-02-15T03:11:18.395Z,32.90
2023-02-15T03:13:46.007Z,33.25
2023-02-15T03:16:27.768Z,34.17
2023-02-15T03:19:21.926Z,33.65
2023-02-15T03:21:58.407Z,34.05
2023-02-15T03:24:29.904Z,33.50
2023-02-15T03:26:57.005Z,33.05
2023-02-15T03:29:26.937Z,34.95
2023-02-15T03:31:59.043Z,35.22
2023-02-15T03:34:25.561Z,33.20
2023-02-15T03:37:03.895Z,32.55
2023-02-15T03:39:46.718Z,31.98
2023-02-15T03:42:39.208Z,31.42
2023-02-15T03:45:11.077Z,34.00
2023-02-15T03:47:40.791Z,34.60
2023-02-15T03:50:33.588Z,32.50
2023-02-15T03:53:01.125Z,33.25
2023-02-15T03:55:28.575Z,35.88
2023-02-15T03:58:13.363Z,35.75
2023-02-15T04:01:01.768Z,37.22
2023-02-15T04:03:52.819Z,36.90
2023-02-15T04:06:19.236Z,34.47
2023-02-15T04:09:04.450Z,35.38
2023-02-15T04:11:31.504Z,33.53
2023-02-15T04:13:57.958Z,33.22
2023-02-15T04:16:25.176Z,33.92
2023-02-15T04:19:10.872Z,34.22
2023-02-15T04:21:55.813Z,35.17
2023-02-15T04:24:40.643Z,38.53
2023-02-15T04:27:07.052Z,36.25
2023-02-15T04:29:33.458Z,37.70
2023-02-15T04:32:01.574Z,36.25
2023-02-15T04:34:27.987Z,36.33
2023-02-15T04:36:54.371Z,39.10
2023-02-15T04:39:20.748Z,37.30
2023-02-15T04:41:48.564Z,37.53
2023-02-15T04:44:15.001Z,37.72
2023-02-15T04:46:41.329Z,38.78
2023-02-15T04:49:09.336Z,37.10
2023-02-15T04:51:35.670Z,39.80
2023-02-15T04:54:02.039Z,41.63
2023-02-15T04:56:30.826Z,42.03
2023-02-15T04:58:57.228Z,41.38
2023-02-15T05:01:23.602Z,40.85
2023-02-15T05:03:50.020Z,39.42
2023-02-15T05:06:16.467Z,39.00
2023-02-15T05:08:42.805Z,39.83
2023-02-15T05:11:09.147Z,39.90
2023-02-15T05:13:35.552Z,38.20
2023-02-15T05:16:02.429Z,39.17
2023-02-15T05:18:28.929Z,40.13
2023-02-15T05:20:55.328Z,39.55
2023-02-15T05:23:21.692Z,39.35
2023-02-15T05:26:08.315Z,40.58
2023-02-15T05:28:35.842Z,40.10
2023-02-15T05:31:11.358Z,39.65
2023-02-15T05:33:38.263Z,40.55
2023-02-15T05:36:05.943Z,38.55
2023-02-15T05:38:32.647Z,38.60
2023-02-15T05:40:59.634Z,38.45
2023-02-15T05:43:26.926Z,38.75
2023-02-15T05:45:54.845Z,37.33
2023-02-15T05:48:23.609Z,39.75
2023-02-15T05:51:05.004Z,37.90
2023-02-15T05:53:33.263Z,38.42
2023-02-15T05:56:01.529Z,37.95
2023-02-15T05:58:30.117Z,36.90
2023-02-15T06:00:56.525Z,41.40
2023-02-15T06:03:24.013Z,39.50
2023-02-15T06:05:50.506Z,41.00
2023-02-15T06:08:16.840Z,42.42
2023-02-15T06:10:43.277Z,40.22
2023-02-15T06:13:09.645Z,41.20
2023-02-15T06:15:36.154Z,40.15
2023-02-15T06:18:03.034Z,35.47
2023-02-15T06:20:29.416Z,35.20
2023-02-15T06:22:55.776Z,36.00
2023-02-15T06:25:22.188Z,36.63
2023-02-15T06:27:48.585Z,24.23
2023-02-15T06:30:15.141Z,42.17
2023-02-15T06:32:41.853Z,38.95
2023-02-15T06:35:08.716Z,40.92
2023-02-15T06:37:35.080Z,36.03
2023-02-15T06:40:03.624Z,37.30
2023-02-15T06:42:30.401Z,37.67
2023-02-15T06:44:56.796Z,36.80
2023-02-15T06:47:23.231Z,37.35
2023-02-15T06:49:49.638Z,39.55
2023-02-15T06:52:16.023Z,39.97
2023-02-15T06:54:42.427Z,38.75
2023-02-15T06:57:10.329Z,41.63
2023-02-15T06:59:40.651Z,41.17
2023-02-15T07:02:07.049Z,39.35
2023-02-15T07:04:33.556Z,38.95
2023-02-15T07:06:59.919Z,40.22
2023-02-15T07:09:26.485Z,38.60
2023-02-15T07:12:11.498Z,39.85
2023-02-15T07:14:38.129Z,35.55
2023-02-15T07:17:05.262Z,37.72
2023-02-15T07:19:31.661Z,38.67
2023-02-15T07:21:58.016Z,37.03
2023-02-15T07:24:24.435Z,35.55
2023-02-15T07:26:51.110Z,35.35
2023-02-15T07:29:17.509Z,34.28
2023-02-15T07:31:46.499Z,32.92
2023-02-15T07:34:13.188Z,32.33
2023-02-15T07:36:39.682Z,33.58
2023-02-15T07:39:06.132Z,33.53
2023-02-15T07:41:32.498Z,32.70
2023-02-15T07:43:58.868Z,32.00
2023-02-15T07:46:25.349Z,31.67
2023-02-15T07:48:51.741Z,32.83
2023-02-15T07:51:18.240Z,29.27
2023-02-15T07:53:44.949Z,31.25
2023-02-15T07:56:12.804Z,32.72
2023-02-15T07:58:51.629Z,30.15
2023-02-15T08:01:23.155Z,31.02
2023-02-15T08:03:49.669Z,29.70
2023-02-15T08:06:16.279Z,30.05
2023-02-15T08:08:42.966Z,28.33
2023-02-15T08:11:26.749Z,29.83
2023-02-15T08:14:00.316Z,26.73
2023-02-15T08:16:38.139Z,27.42
2023-02-15T08:19:10.250Z,27.30
2023-02-15T08:21:39.117Z,27.10
2023-02-15T08:24:06.681Z,27.77
2023-02-15T08:26:33.791Z,26.65
2023-02-15T08:29:00.714Z,25.42
2023-02-15T08:31:28.163Z,24.65
2023-02-15T08:33:56.282Z,26.15
2023-02-15T08:36:25.746Z,28.02
2023-02-15T08:38:52.283Z,26.85
2023-02-15T08:41:20.428Z,26.42
2023-02-15T08:43:49.051Z,24.35
2023-02-15T08:46:17.176Z,25.15
2023-02-15T08:48:44.004Z,25.70
2023-02-15T08:51:16.407Z,27.45
2023-02-15T08:53:45.826Z,26.80
2023-02-15T08:56:12.873Z,28.13
2023-02-15T08:58:39.324Z,26.45
2023-02-15T09:01:23.984Z,28.48
2023-02-15T09:03:54.317Z,27.25
2023-02-15T09:06:22.190Z,25.73
2023-02-15T09:08:49.192Z,24.13
2023-02-15T09:11:23.303Z,23.63
2023-02-15T09:13:51.228Z,22.33
2023-02-15T09:16:17.700Z,25.88
2023-02-15T09:18:44.458Z,26.73
2023-02-15T09:21:16.622Z,26.95
2023-02-15T09:23:44.565Z,27.60
2023-02-15T09:26:13.533Z,28.50
2023-02-15T09:28:40.813Z,28.27
2023-02-15T09:31:18.897Z,29.88
2023-02-15T09:33:46.614Z,28.10
2023-02-15T09:36:19.913Z,25.52
2023-02-15T09:38:53.717Z,25.05
2023-02-15T09:41:50.777Z,26.90
2023-02-15T09:44:35.565Z,26.38
2023-02-15T09:47:36.388Z,27.80
2023-02-15T09:50:21.490Z,25.13
2023-02-15T09:53:02.888Z,26.38
2023-02-15T09:55:49.659Z,25.17
2023-02-15T09:58:39.024Z,26.75
2023-02-15T10:01:25.751Z,23.88
2023-02-15T10:04:23.296Z,22.70
2023-02-15T10:07:19.613Z,22.90
2023-02-15T10:09:45.896Z,19.83
2023-02-15T10:12:49.198Z,21.77
2023-02-15T10:15:15.453Z,20.50
2023-02-15T10:18:02.914Z,19.60
2023-02-15T10:20:39.892Z,21.75
2023-02-15T10:23:27.215Z,20.27
2023-02-15T10:26:02.918Z,21.88
2023-02-15T10:28:51.407Z,20.38
2023-02-15T10:31:42.825Z,21.85
2023-02-15T10:34:22.563Z,21.27
2023-02-15T10:37:13.971Z,22.88
2023-02-15T10:39:57.506Z,21.73
2023-02-15T10:42:51.356Z,21.02
2023-02-15T10:45:29.771Z,21.88
2023-02-15T10:48:28.437Z,21.38
2023-02-15T10:51:06.459Z,21.38
2023-02-15T10:53:57.382Z,20.85
2023-02-15T10:56:32.287Z,22.23
2023-02-15T10:59:04.542Z,22.30
2023-02-15T11:01:37.289Z,21.00
2023-02-15T11:04:23.352Z,22.02
2023-02-15T11:06:54.259Z,20.58
2023-02-15T11:09:23.053Z,21.17
2023-02-15T11:11:51.992Z,24.35
2023-02-15T11:14:38.654Z,22.95
2023-02-15T11:17:13.509Z,22.75
2023-02-15T11:19:47.499Z,24.25
2023-02-15T11:22:13.904Z,25.33
2023-02-15T11:24:43.221Z,25.90
2023-02-15T11:27:31.513Z,26.15
2023-02-15T11:30:05.155Z,25.45
2023-02-15T11:32:34.491Z,25.02
2023-02-15T11:35:12.956Z,26.50
2023-02-15T11:37:52.735Z,26.13
2023-02-15T11:40:26.999Z,25.30
2023-02-15T11:42:57.259Z,26.58
2023-02-15T11:45:31.601Z,26.60
2023-02-15T11:47:59.585Z,29.05
2023-02-15T11:50:33.876Z,27.15
2023-02-15T11:53:03.572Z,26.95
2023-02-15T11:55:30.313Z,29.33
2023-02-15T11:58:25.516Z,27.75
2023-02-15T12:01:05.375Z,28.17
2023-02-15T12:03:48.831Z,29.58
2023-02-15T12:06:17.931Z,30.33
2023-02-15T12:08:49.933Z,27.10
2023-02-15T12:11:20.575Z,28.50
2023-02-15T12:14:06.256Z,28.33
2023-02-15T12:16:41.706Z,27.00
2023-02-15T12:19:18.426Z,27.02
2023-02-15T12:21:45.875Z,27.08
2023-02-15T12:24:22.089Z,27.13
2023-02-15T12:27:17.485Z,28.10
2023-02-15T12:29:47.674Z,30.77
2023-02-15T12:32:25.779Z,28.80
2023-02-15T12:34:55.432Z,29.25
2023-02-15T12:37:27.811Z,31.92
2023-02-15T12:40:01.628Z,30.20
2023-02-15T12:42:30.052Z,30.63
2023-02-15T12:45:02.077Z,30.73
2023-02-15T12:47:30.287Z,32.15
2023-02-15T12:50:22.778Z,30.55
2023-02-15T12:52:51.138Z,29.95
2023-02-15T12:55:24.697Z,30.15
2023-02-15T12:58:17.195Z,33.38
2023-02-15T13:00:43.772Z,34.42
2023-02-15T13:03:21.516Z,33.05
2023-02-15T13:05:51.960Z,35.55
2023-02-15T13:08:21.366Z,32.90
2023-02-15T13:11:04.615Z,32.85
2023-02-15T13:13:34.156Z,35.97
2023-02-15T13:16:06.818Z,35.17
2023-02-15T13:18:36.987Z,20.10
2023-02-15T13:21:12.365Z,38.35
2023-02-15T13:23:40.651Z,38.60
2023-02-15T13:26:14.230Z,34.03
2023-02-15T13:28:43.576Z,32.13
2023-02-15T13:31:14.822Z,32.55
2023-02-15T13:33:46.289Z,30.05
2023-02-15T13:36:22.432Z,31.45
2023-02-15T13:39:06.059Z,30.48
2023-02-15T13:41:36.952Z,31.52
2023-02-15T13:44:29.209Z,31.02
2023-02-15T13:47:28.463Z,32.30
2023-02-15T13:50:18.061Z,32.50
2023-02-15T13:52:54.208Z,32.05
2023-02-15T13:55:41.620Z,31.20
2023-02-15T13:58:37.973Z,31.00
2023-02-15T14:01:20.619Z,31.45
2023-02-15T14:04:06.022Z,32.35
2023-02-15T14:06:51.026Z,31.98
2023-02-15T14:09:36.150Z,28.73
2023-02-15T14:12:31.101Z,29.17
2023-02-15T14:15:21.210Z,32.15
2023-02-15T14:18:06.253Z,30.52
2023-02-15T14:20:52.711Z,31.48
2023-02-15T14:23:39.560Z,34.95
2023-02-15T14:26:46.409Z,33.80
2023-02-15T14:29:31.455Z,33.30
2023-02-15T14:32:00.983Z,32.17
2023-02-15T14:34:50.407Z,34.55
2023-02-15T14:37:23.219Z,34.10
2023-02-15T14:40:32.432Z,33.65
2023-02-15T14:43:00.617Z,33.13
2023-02-15T14:45:50.818Z,38.38
2023-02-15T14:48:22.486Z,35.40
2023-02-15T14:50:49.395Z,35.58
2023-02-15T14:53:26.198Z,37.38
2023-02-15T14:56:10.908Z,36.00
2023-02-15T14:58:38.059Z,34.92
2023-02-15T15:01:09.153Z,34.75
2023-02-15T15:03:39.664Z,36.10
2023-02-15T15:06:07.153Z,37.38
2023-02-15T15:08:41.672Z,36.40
2023-02-15T15:11:42.541Z,38.03
2023-02-15T15:14:11.173Z,37.95
2023-02-15T15:16:38.138Z,39.13
2023-02-15T15:19:09.267Z,37.72
2023-02-15T15:21:47.531Z,38.28
2023-02-15T15:24:38.533Z,36.28
2023-02-15T15:27:56.249Z,37.40
2023-02-15T15:30:22.665Z,37.63
2023-02-15T15:32:54.978Z,35.22
2023-02-15T15:35:38.935Z,38.55
2023-02-15T15:38:40.266Z,39.08
2023-02-15T15:41:44.503Z,39.72
2023-02-15T15:44:22.808Z,40.35
2023-02-15T15:47:17.026Z,43.88
2023-02-15T15:49:43.557Z,40.60
2023-02-15T15:52:16.150Z,70.78
2023-02-15T15:54:43.072Z,57.47
2023-02-15T15:57:26.630Z,63.63
2023-02-15T15:59:54.314Z,42.22
2023-02-15T16:02:20.882Z,43.95
2023-02-15T16:04:48.579Z,40.05
2023-02-15T16:07:24.131Z,39.53
2023-02-15T16:10:01.341Z,42.20
2023-02-15T16:12:33.320Z,42.05
2023-02-15T16:15:03.577Z,45.10
2023-02-15T16:17:32.759Z,45.83
2023-02-15T16:20:22.811Z,44.95
2023-02-15T16:22:55.062Z,50.45
2023-02-15T16:25:36.737Z,44.35
2023-02-15T16:28:12.357Z,43.38
2023-02-15T16:30:43.706Z,42.05
2023-02-15T16:33:15.820Z,44.15
2023-02-15T16:35:56.756Z,42.28
2023-02-15T16:38:47.711Z,38.92
2023-02-15T16:41:20.447Z,38.53
2023-02-15T16:43:48.681Z,38.85
2023-02-15T16:46:21.649Z,35.22
2023-02-15T16:48:52.374Z,33.50
2023-02-15T16:51:26.455Z,36.50
2023-02-15T16:53:55.084Z,39.60
2023-02-15T16:56:27.070Z,36.67
2023-02-15T16:58:54.918Z,37.25
2023-02-15T17:01:24.424Z,42.10
2023-02-15T17:03:52.663Z,40.50
2023-02-15T17:06:26.711Z,41.63
2023-02-15T17:08:53.981Z,42.05
2023-02-15T17:11:21.232Z,41.03
2023-02-15T17:14:06.558Z,42.15
2023-02-15T17:16:38.032Z,39.55
2023-02-15T17:19:19.442Z,40.58
2023-02-15T17:21:51.519Z,41.05
2023-02-15T17:24:34.902Z,38.88
2023-02-15T17:27:08.093Z,39.87
2023-02-15T17:29:39.497Z,41.83
2023-02-15T17:32:14.782Z,40.95
2023-02-15T17:35:12.420Z,40.35
2023-02-15T17:37:38.635Z,42.22
2023-02-15T17:40:27.905Z,44.33
2023-02-15T17:42:54.598Z,42.40
2023-02-15T17:45:21.963Z,43.28
2023-02-15T17:47:49.800Z,46.95
2023-02-15T17:50:24.104Z,42.70
2023-02-15T17:52:52.177Z,43.67
2023-02-15T17:55:36.029Z,41.25
2023-02-15T17:58:04.927Z,43.70
2023-02-15T18:00:50.697Z,40.80
2023-02-15T18:03:36.461Z,40.05
2023-02-15T18:06:21.506Z,40.30
2023-02-15T18:09:06.459Z,40.50
2023-02-15T18:11:38.704Z,40.83
2023-02-15T18:14:06.737Z,40.78
2023-02-15T18:16:36.104Z,41.90
2023-02-15T18:19:04.733Z,44.92
2023-02-15T18:21:33.068Z,43.90
2023-02-15T18:23:59.494Z,39.83
2023-02-15T18:26:26.746Z,42.38
2023-02-15T18:28:53.338Z,37.60
2023-02-15T18:31:21.258Z,46.80
2023-02-15T18:33:49.279Z,39.65
2023-02-15T18:36:23.132Z,41.22
2023-02-15T18:41:20.157Z,35.97
2023-02-15T18:43:48.735Z,38.03
2023-02-15T18:46:16.668Z,36.80
2023-02-15T18:48:43.592Z,36.85
2023-02-15T18:51:20.237Z,35.90
2023-02-15T18:53:47.939Z,37.30
2023-02-15T18:56:18.864Z,38.22
2023-02-15T18:58:49.530Z,38.88
2023-02-15T19:01:18.775Z,42.22
2023-02-15T19:03:50.162Z,39.78
2023-02-15T19:06:22.923Z,40.78
2023-02-15T19:08:51.139Z,43.47
2023-02-15T19:11:23.394Z,39.58
2023-02-15T19:13:51.548Z,39.97
2023-02-15T19:16:32.579Z,39.70
2023-02-15T19:18:59.572Z,42.05
2023-02-15T19:21:27.622Z,42.25
2023-02-15T19:23:57.080Z,43.92
2023-02-15T19:26:28.702Z,42.58
2023-02-15T19:29:01.290Z,41.60
2023-02-15T19:31:28.356Z,41.70
2023-02-15T19:33:54.870Z,48.25
2023-02-15T19:36:22.880Z,41.25
2023-02-15T19:38:54.529Z,41.40
2023-02-15T19:41:27.020Z,42.15
2023-02-15T19:43:55.793Z,42.05
2023-02-15T19:46:23.258Z,42.50
2023-02-15T19:48:53.699Z,43.40
2023-02-15T19:51:21.648Z,43.60
2023-02-15T19:53:48.991Z,44.72
2023-02-15T19:56:21.113Z,44.55
2023-02-15T19:58:49.711Z,44.78
2023-02-15T20:01:18.152Z,45.63
2023-02-15T20:03:44.690Z,46.17
2023-02-15T20:06:14.870Z,42.47
2023-02-15T20:08:42.447Z,43.92
2023-02-15T20:11:10.588Z,41.80
2023-02-15T20:13:37.280Z,43.45
2023-02-15T20:16:07.808Z,43.13
2023-02-15T20:18:34.926Z,43.47
2023-02-15T20:21:02.495Z,43.50
2023-02-15T20:23:31.993Z,42.35
2023-02-15T20:26:00.297Z,43.75
2023-02-15T20:28:29.358Z,40.78
2023-02-15T20:30:55.914Z,40.53
2023-02-15T20:33:22.803Z,41.58
2023-02-15T20:35:49.914Z,42.60
2023-02-15T20:38:21.838Z,42.60
2023-02-15T20:41:06.617Z,43.65
2023-02-15T20:43:33.959Z,42.05
2023-02-15T20:46:01.091Z,42.17
2023-02-15T20:48:27.656Z,40.33
2023-02-15T20:50:54.992Z,40.42
2023-02-15T20:53:21.691Z,41.30
2023-02-15T20:55:48.121Z,41.20
2023-02-15T20:58:26.795Z,41.17
2023-02-15T21:00:54.241Z,42.45
2023-02-15T21:03:26.231Z,38.90
2023-02-15T21:05:52.602Z,39.63
2023-02-15T21:08:21.952Z,38.85
2023-02-15T21:10:50.117Z,39.53
2023-02-15T21:13:27.921Z,39.03
2023-02-15T21:15:55.377Z,39.42
2023-02-15T21:18:22.926Z,41.05
2023-02-15T21:20:52.584Z,39.42
2023-02-15T21:23:22.626Z,39.30
2023-02-15T21:25:49.147Z,39.08
2023-02-15T21:28:21.749Z,42.95
2023-02-15T21:30:49.605Z,41.58
2023-02-15T21:33:16.473Z,42.95
2023-02-15T21:35:45.034Z,42.90
2023-02-15T21:38:15.411Z,43.45
2023-02-15T21:40:42.286Z,44.65
2023-02-15T21:43:35.466Z,43.33
2023-02-15T21:46:34.003Z,43.33
2023-02-15T21:49:01.731Z,45.63
2023-02-15T21:51:48.667Z,44.10
2023-02-15T21:54:16.990Z,45.67
2023-02-15T21:56:43.372Z,45.55
2023-02-15T21:59:14.135Z,44.45
2023-02-15T22:01:50.896Z,44.88
2023-02-15T22:04:29.766Z,46.45
2023-02-15T22:06:56.707Z,44.03
2023-02-15T22:09:25.151Z,45.95
2023-02-15T22:11:51.861Z,46.80
2023-02-15T22:14:37.145Z,44.83
2023-02-15T22:17:18.514Z,44.67
2023-02-15T22:19:45.691Z,44.58
2023-02-15T22:22:12.133Z,42.08
2023-02-15T22:24:39.152Z,42.75
2023-02-15T22:27:06.337Z,43.13
2023-02-15T22:29:33.413Z,42.92
2023-02-15T22:31:59.863Z,44.78
2023-02-15T22:34:29.606Z,44.63
2023-02-15T22:36:56.432Z,43.83
2023-02-15T22:39:24.588Z,44.55
2023-02-15T22:41:51.978Z,44.00
2023-02-15T22:44:27.378Z,45.72
2023-02-15T22:46:53.815Z,47.10
2023-02-15T22:49:20.408Z,47.30
2023-02-15T22:51:50.576Z,47.40
2023-02-15T22:54:17.981Z,44.47
2023-02-15T22:56:50.971Z,47.75
2023-02-15T22:59:26.008Z,47.57
2023-02-15T23:01:53.157Z,49.00
2023-02-15T23:04:25.145Z,48.70
2023-02-15T23:06:53.220Z,49.85
2023-02-15T23:09:20.166Z,50.97
2023-02-15T23:11:55.070Z,48.85
2023-02-15T23:14:33.546Z,51.42
2023-02-15T23:17:00.217Z,49.45
2023-02-15T23:19:26.824Z,51.15
2023-02-15T23:21:53.321Z,48.95
2023-02-15T23:24:25.716Z,50.38
2023-02-15T23:26:52.448Z,49.67
2023-02-15T23:29:21.329Z,50.22
2023-02-15T23:31:50.324Z,49.88
2023-02-15T23:34:17.794Z,51.10
2023-02-15T23:36:47.019Z,50.97
2023-02-15T23:39:36.333Z,49.03
2023-02-15T23:42:18.039Z,49.00
2023-02-15T23:44:45.146Z,50.42
2023-02-15T23:47:42.627Z,47.35
2023-02-15T23:50:29.457Z,49.83
2023-02-15T23:52:56.661Z,50.58
2023-02-15T23:55:25.497Z,49.28
2023-02-15T23:57:51.927Z,51.05
